Terminal Aerodrome Forecast
Issued by NWS

Home | Current Version | Previous Version | Text Only | Print | Product List | Glossary On
Versions: 1 2 3 4 5 6 7 8 9 10 11 12 13
220
FTUS44 KLUB 232337
TAFCDS
TAF
KCDS 232337Z 2400/2424 18030G40KT P6SM FEW050 SCT250
      TEMPO 2404/2406 VRB25G45KT 5SM TSRA BKN050CB
     FM240600 22020G30KT P6SM FEW050 BKN100
     FM241800 28032G45KT 4SM BLDU BKN060=

USA.gov is the U.S. government's official web portal to all federal, state and local government web resources and services.